sensor_id;sensor_type;location;lat;lon;timestamp;pressure;altitude;pressure_sealevel;temperature;humidity
60240;BME280;46102;39.012;-7.064;2023-08-08T00:00:48;98081.84;;;30.71;26.04
60240;BME280;46102;39.012;-7.064;2023-08-08T00:02:49;98081.34;;;30.63;26.16
60240;BME280;46102;39.012;-7.064;2023-08-08T00:04:49;98075.81;;;30.60;26.71
60240;BME280;46102;39.012;-7.064;2023-08-08T00:06:51;98077.19;;;30.55;27.01
60240;BME280;46102;39.012;-7.064;2023-08-08T00:08:51;98086.31;;;30.50;26.36
60240;BME280;46102;39.012;-7.064;2023-08-08T00:10:52;98071.03;;;30.47;26.53
60240;BME280;46102;39.012;-7.064;2023-08-08T00:12:53;98078.88;;;30.43;26.67
60240;BME280;46102;39.012;-7.064;2023-08-08T00:14:54;98080.72;;;30.37;26.19
60240;BME280;46102;39.012;-7.064;2023-08-08T00:16:54;98073.94;;;30.35;26.21
60240;BME280;46102;39.012;-7.064;2023-08-08T00:18:55;98071.59;;;30.33;26.32
60240;BME280;46102;39.012;-7.064;2023-08-08T00:20:56;98082.09;;;30.33;26.22
60240;BME280;46102;39.012;-7.064;2023-08-08T00:22:57;98084.59;;;30.30;25.99
60240;BME280;46102;39.012;-7.064;2023-08-08T00:24:57;98080.66;;;30.28;26.07
60240;BME280;46102;39.012;-7.064;2023-08-08T00:26:59;98075.78;;;30.28;26.41
60240;BME280;46102;39.012;-7.064;2023-08-08T00:29:00;98073.09;;;30.25;26.16
60240;BME280;46102;39.012;-7.064;2023-08-08T00:31:00;98072.88;;;30.19;26.82
60240;BME280;46102;39.012;-7.064;2023-08-08T00:33:01;98077.91;;;30.15;26.31
60240;BME280;46102;39.012;-7.064;2023-08-08T00:35:02;98073.03;;;30.16;26.20
60240;BME280;46102;39.012;-7.064;2023-08-08T00:37:03;98074.41;;;30.11;26.64
60240;BME280;46102;39.012;-7.064;2023-08-08T00:39:04;98075.66;;;30.10;26.50
60240;BME280;46102;39.012;-7.064;2023-08-08T00:41:04;98070.28;;;30.03;26.48
60240;BME280;46102;39.012;-7.064;2023-08-08T00:43:05;98069.94;;;30.01;27.08
60240;BME280;46102;39.012;-7.064;2023-08-08T00:45:06;98071.66;;;29.98;27.18
60240;BME280;46102;39.012;-7.064;2023-08-08T00:47:09;98071.31;;;29.96;27.17
60240;BME280;46102;39.012;-7.064;2023-08-08T00:49:10;98069.28;;;29.97;27.17
60240;BME280;46102;39.012;-7.064;2023-08-08T00:51:11;98072.59;;;29.95;26.83
60240;BME280;46102;39.012;-7.064;2023-08-08T00:53:12;98066.13;;;29.95;26.92
60240;BME280;46102;39.012;-7.064;2023-08-08T00:55:13;98065.00;;;29.92;27.41
60240;BME280;46102;39.012;-7.064;2023-08-08T00:57:15;98065.47;;;29.91;26.97
60240;BME280;46102;39.012;-7.064;2023-08-08T00:59:18;98061.06;;;29.89;27.62
60240;BME280;46102;39.012;-7.064;2023-08-08T01:01:19;98066.88;;;29.86;27.70
60240;BME280;46102;39.012;-7.064;2023-08-08T01:03:21;98064.16;;;29.82;27.44
60240;BME280;46102;39.012;-7.064;2023-08-08T01:05:21;98063.50;;;29.78;27.61
60240;BME280;46102;39.012;-7.064;2023-08-08T01:07:31;98056.38;;;29.74;27.64
60240;BME280;46102;39.012;-7.064;2023-08-08T01:09:42;98065.47;;;29.68;27.11
60240;BME280;46102;39.012;-7.064;2023-08-08T01:11:45;98069.97;;;29.66;27.19
60240;BME280;46102;39.012;-7.064;2023-08-08T01:13:49;98064.44;;;29.62;27.88
60240;BME280;46102;39.012;-7.064;2023-08-08T01:15:53;98074.28;;;29.58;27.61
60240;BME280;46102;39.012;-7.064;2023-08-08T01:17:54;98063.56;;;29.53;27.73
60240;BME280;46102;39.012;-7.064;2023-08-08T01:19:56;98066.06;;;29.51;28.20
60240;BME280;46102;39.012;-7.064;2023-08-08T01:22:01;98071.81;;;29.47;28.51
60240;BME280;46102;39.012;-7.064;2023-08-08T01:26:22;98057.03;;;29.43;29.02
60240;BME280;46102;39.012;-7.064;2023-08-08T01:28:23;98068.13;;;29.37;29.07
60240;BME280;46102;39.012;-7.064;2023-08-08T01:30:24;98066.22;;;29.34;29.02
60240;BME280;46102;39.012;-7.064;2023-08-08T01:32:25;98064.28;;;29.31;29.13
60240;BME280;46102;39.012;-7.064;2023-08-08T01:34:26;98065.22;;;29.28;29.27
60240;BME280;46102;39.012;-7.064;2023-08-08T01:36:41;98067.94;;;29.19;29.57
60240;BME280;46102;39.012;-7.064;2023-08-08T01:38:46;98072.81;;;29.18;29.37
60240;BME280;46102;39.012;-7.064;2023-08-08T01:40:49;98065.22;;;29.15;29.88
60240;BME280;46102;39.012;-7.064;2023-08-08T01:42:50;98069.31;;;29.14;29.47
60240;BME280;46102;39.012;-7.064;2023-08-08T01:44:53;98066.59;;;29.11;29.80
60240;BME280;46102;39.012;-7.064;2023-08-08T01:46:56;98057.91;;;29.05;29.48
60240;BME280;46102;39.012;-7.064;2023-08-08T01:48:59;98060.03;;;29.01;29.87
60240;BME280;46102;39.012;-7.064;2023-08-08T01:51:00;98062.19;;;28.97;29.63
60240;BME280;46102;39.012;-7.064;2023-08-08T01:53:01;98059.03;;;28.95;29.27
60240;BME280;46102;39.012;-7.064;2023-08-08T01:55:02;98066.81;;;28.91;29.28
60240;BME280;46102;39.012;-7.064;2023-08-08T01:57:04;98060.38;;;28.90;29.42
60240;BME280;46102;39.012;-7.064;2023-08-08T01:59:05;98065.69;;;28.88;29.41
60240;BME280;46102;39.012;-7.064;2023-08-08T02:01:05;98068.97;;;28.86;29.20
60240;BME280;46102;39.012;-7.064;2023-08-08T02:03:06;98050.47;;;28.85;29.30
60240;BME280;46102;39.012;-7.064;2023-08-08T02:05:07;98049.34;;;28.83;29.51
60240;BME280;46102;39.012;-7.064;2023-08-08T02:07:08;98061.84;;;28.82;29.68
60240;BME280;46102;39.012;-7.064;2023-08-08T02:09:09;98058.59;;;28.83;29.23
60240;BME280;46102;39.012;-7.064;2023-08-08T02:11:09;98061.19;;;28.78;29.42
60240;BME280;46102;39.012;-7.064;2023-08-08T02:13:10;98063.22;;;28.77;29.81
60240;BME280;46102;39.012;-7.064;2023-08-08T02:15:11;98068.97;;;28.74;30.09
60240;BME280;46102;39.012;-7.064;2023-08-08T02:17:12;98072.50;;;28.78;29.87
60240;BME280;46102;39.012;-7.064;2023-08-08T02:19:12;98079.25;;;28.80;29.80
60240;BME280;46102;39.012;-7.064;2023-08-08T02:21:13;98080.03;;;28.81;29.70
60240;BME280;46102;39.012;-7.064;2023-08-08T02:23:14;98079.25;;;28.80;29.70
60240;BME280;46102;39.012;-7.064;2023-08-08T02:25:15;98072.00;;;28.79;29.84
60240;BME280;46102;39.012;-7.064;2023-08-08T02:27:16;98080.59;;;28.76;29.74
60240;BME280;46102;39.012;-7.064;2023-08-08T02:29:17;98079.94;;;28.72;29.62
60240;BME280;46102;39.012;-7.064;2023-08-08T02:31:17;98078.81;;;28.69;29.65
60240;BME280;46102;39.012;-7.064;2023-08-08T02:33:21;98085.47;;;28.62;29.66
60240;BME280;46102;39.012;-7.064;2023-08-08T02:35:22;98081.84;;;28.62;29.77
60240;BME280;46102;39.012;-7.064;2023-08-08T02:37:22;98083.06;;;28.61;29.77
60240;BME280;46102;39.012;-7.064;2023-08-08T02:39:23;98074.72;;;28.57;29.75
60240;BME280;46102;39.012;-7.064;2023-08-08T02:41:24;98080.03;;;28.55;29.80
60240;BME280;46102;39.012;-7.064;2023-08-08T02:43:25;98079.22;;;28.55;29.98
60240;BME280;46102;39.012;-7.064;2023-08-08T02:45:26;98090.97;;;28.53;30.29
60240;BME280;46102;39.012;-7.064;2023-08-08T02:47:27;98089.38;;;28.52;30.23
60240;BME280;46102;39.012;-7.064;2023-08-08T02:49:28;98085.88;;;28.48;30.27
60240;BME280;46102;39.012;-7.064;2023-08-08T02:51:29;98085.50;;;28.46;30.22
60240;BME280;46102;39.012;-7.064;2023-08-08T02:53:30;98075.84;;;28.47;30.54
60240;BME280;46102;39.012;-7.064;2023-08-08T02:55:30;98080.66;;;28.47;30.55
60240;BME280;46102;39.012;-7.064;2023-08-08T02:57:31;98080.31;;;28.44;30.55
60240;BME280;46102;39.012;-7.064;2023-08-08T02:59:33;98085.97;;;28.44;30.59
60240;BME280;46102;39.012;-7.064;2023-08-08T03:01:37;98084.94;;;28.38;30.63
60240;BME280;46102;39.012;-7.064;2023-08-08T03:03:46;98081.44;;;28.34;30.60
60240;BME280;46102;39.012;-7.064;2023-08-08T03:05:48;98073.75;;;28.35;30.73
60240;BME280;46102;39.012;-7.064;2023-08-08T03:07:51;98077.81;;;28.34;30.44
60240;BME280;46102;39.012;-7.064;2023-08-08T03:09:53;98072.63;;;28.32;30.26
60240;BME280;46102;39.012;-7.064;2023-08-08T03:11:53;98081.91;;;28.33;30.43
60240;BME280;46102;39.012;-7.064;2023-08-08T03:13:54;98072.28;;;28.30;30.43
60240;BME280;46102;39.012;-7.064;2023-08-08T03:15:55;98072.50;;;28.23;30.54
60240;BME280;46102;39.012;-7.064;2023-08-08T03:17:57;98073.84;;;28.18;30.70
60240;BME280;46102;39.012;-7.064;2023-08-08T03:19:59;98067.06;;;28.16;30.43
60240;BME280;46102;39.012;-7.064;2023-08-08T03:22:00;98070.78;;;28.13;30.57
60240;BME280;46102;39.012;-7.064;2023-08-08T03:24:01;98069.19;;;28.12;30.48
60240;BME280;46102;39.012;-7.064;2023-08-08T03:26:03;98058.41;;;28.10;30.49
60240;BME280;46102;39.012;-7.064;2023-08-08T03:28:03;98070.09;;;28.09;30.79
60240;BME280;46102;39.012;-7.064;2023-08-08T03:30:05;98065.38;;;28.06;31.13
60240;BME280;46102;39.012;-7.064;2023-08-08T03:32:12;98064.69;;;28.01;31.57
60240;BME280;46102;39.012;-7.064;2023-08-08T03:34:13;98069.63;;;27.97;31.73
60240;BME280;46102;39.012;-7.064;2023-08-08T03:36:14;98076.47;;;27.96;32.08
60240;BME280;46102;39.012;-7.064;2023-08-08T03:38:15;98079.41;;;27.93;32.44
60240;BME280;46102;39.012;-7.064;2023-08-08T03:40:16;98083.47;;;27.92;32.83
60240;BME280;46102;39.012;-7.064;2023-08-08T03:42:17;98085.59;;;27.88;32.97
60240;BME280;46102;39.012;-7.064;2023-08-08T03:44:18;98084.88;;;27.83;33.82
60240;BME280;46102;39.012;-7.064;2023-08-08T03:46:19;98090.16;;;27.81;33.87
60240;BME280;46102;39.012;-7.064;2023-08-08T03:48:19;98081.44;;;27.76;34.60
60240;BME280;46102;39.012;-7.064;2023-08-08T03:50:20;98081.22;;;27.70;35.00
60240;BME280;46102;39.012;-7.064;2023-08-08T03:52:21;98081.22;;;27.70;35.35
60240;BME280;46102;39.012;-7.064;2023-08-08T03:54:22;98078.06;;;27.68;35.06
60240;BME280;46102;39.012;-7.064;2023-08-08T03:56:23;98072.41;;;27.68;35.70
60240;BME280;46102;39.012;-7.064;2023-08-08T03:58:24;98077.69;;;27.66;35.69
60240;BME280;46102;39.012;-7.064;2023-08-08T04:00:25;98076.91;;;27.66;36.01
60240;BME280;46102;39.012;-7.064;2023-08-08T04:02:25;98083.69;;;27.68;35.88
60240;BME280;46102;39.012;-7.064;2023-08-08T04:04:28;98082.91;;;27.68;36.24
60240;BME280;46102;39.012;-7.064;2023-08-08T04:06:29;98076.00;;;27.69;36.62
60240;BME280;46102;39.012;-7.064;2023-08-08T04:08:30;98084.91;;;27.67;36.70
60240;BME280;46102;39.012;-7.064;2023-08-08T04:10:31;98087.84;;;27.64;37.04
60240;BME280;46102;39.012;-7.064;2023-08-08T04:12:32;98083.53;;;27.59;37.41
60240;BME280;46102;39.012;-7.064;2023-08-08T04:14:33;98086.69;;;27.61;37.31
60240;BME280;46102;39.012;-7.064;2023-08-08T04:16:34;98081.16;;;27.57;37.83
60240;BME280;46102;39.012;-7.064;2023-08-08T04:18:35;98080.91;;;27.52;38.27
60240;BME280;46102;39.012;-7.064;2023-08-08T04:20:36;98095.41;;;27.50;38.13
60240;BME280;46102;39.012;-7.064;2023-08-08T04:22:37;98088.31;;;27.46;38.38
60240;BME280;46102;39.012;-7.064;2023-08-08T04:24:37;98093.50;;;27.47;38.38
60240;BME280;46102;39.012;-7.064;2023-08-08T04:26:39;98093.59;;;27.44;38.26
60240;BME280;46102;39.012;-7.064;2023-08-08T04:28:40;98093.50;;;27.47;38.56
60240;BME280;46102;39.012;-7.064;2023-08-08T04:30:41;98090.69;;;27.47;38.57
60240;BME280;46102;39.012;-7.064;2023-08-08T04:32:41;98095.50;;;27.47;38.58
60240;BME280;46102;39.012;-7.064;2023-08-08T04:34:42;98098.06;;;27.41;38.52
60240;BME280;46102;39.012;-7.064;2023-08-08T04:36:43;98098.06;;;27.41;38.65
60240;BME280;46102;39.012;-7.064;2023-08-08T04:38:44;98096.59;;;27.36;38.75
60240;BME280;46102;39.012;-7.064;2023-08-08T04:40:44;98092.09;;;27.39;38.98
60240;BME280;46102;39.012;-7.064;2023-08-08T04:42:45;98091.94;;;27.30;39.16
60240;BME280;46102;39.012;-7.064;2023-08-08T04:44:46;98098.69;;;27.32;38.95
60240;BME280;46102;39.012;-7.064;2023-08-08T04:46:47;98099.84;;;27.35;39.12
60240;BME280;46102;39.012;-7.064;2023-08-08T04:48:47;98101.44;;;27.36;38.92
60240;BME280;46102;39.012;-7.064;2023-08-08T04:50:48;98105.03;;;27.36;38.94
60240;BME280;46102;39.012;-7.064;2023-08-08T04:52:49;98105.13;;;27.33;39.05
60240;BME280;46102;39.012;-7.064;2023-08-08T04:54:50;98111.88;;;27.35;39.12
60240;BME280;46102;39.012;-7.064;2023-08-08T04:56:51;98109.41;;;27.37;39.31
60240;BME280;46102;39.012;-7.064;2023-08-08T04:58:51;98116.38;;;27.33;39.58
60240;BME280;46102;39.012;-7.064;2023-08-08T05:00:52;98107.50;;;27.34;39.51
60240;BME280;46102;39.012;-7.064;2023-08-08T05:02:53;98104.56;;;27.38;39.37
60240;BME280;46102;39.012;-7.064;2023-08-08T05:04:54;98106.59;;;27.37;39.48
60240;BME280;46102;39.012;-7.064;2023-08-08T05:06:54;98110.22;;;27.38;39.20
60240;BME280;46102;39.012;-7.064;2023-08-08T05:08:55;98119.00;;;27.40;38.98
60240;BME280;46102;39.012;-7.064;2023-08-08T05:10:57;98114.97;;;27.41;39.31
60240;BME280;46102;39.012;-7.064;2023-08-08T05:12:58;98111.38;;;27.40;39.14
60240;BME280;46102;39.012;-7.064;2023-08-08T05:14:58;98123.06;;;27.39;39.33
60240;BME280;46102;39.012;-7.064;2023-08-08T05:17:00;98123.97;;;27.36;39.35
60240;BME280;46102;39.012;-7.064;2023-08-08T05:19:01;98118.22;;;27.39;39.15
60240;BME280;46102;39.012;-7.064;2023-08-08T05:21:02;98127.03;;;27.41;39.13
60240;BME280;46102;39.012;-7.064;2023-08-08T05:23:03;98122.19;;;27.42;38.92
60240;BME280;46102;39.012;-7.064;2023-08-08T05:25:04;98128.63;;;27.43;39.00
60240;BME280;46102;39.012;-7.064;2023-08-08T05:27:05;98125.59;;;27.33;39.45
60240;BME280;46102;39.012;-7.064;2023-08-08T05:29:06;98128.09;;;27.31;39.21
60240;BME280;46102;39.012;-7.064;2023-08-08T05:31:06;98125.00;;;27.26;39.05
60240;BME280;46102;39.012;-7.064;2023-08-08T05:33:07;98127.53;;;27.20;39.14
60240;BME280;46102;39.012;-7.064;2023-08-08T05:35:08;98123.91;;;27.19;39.44
60240;BME280;46102;39.012;-7.064;2023-08-08T05:37:09;98130.72;;;27.22;39.09
60240;BME280;46102;39.012;-7.064;2023-08-08T05:39:10;98129.84;;;27.25;39.17
60240;BME280;46102;39.012;-7.064;2023-08-08T05:41:11;98134.69;;;27.25;39.00
60240;BME280;46102;39.012;-7.064;2023-08-08T05:43:11;98125.00;;;27.26;39.10
60240;BME280;46102;39.012;-7.064;2023-08-08T05:45:17;98127.81;;;27.26;39.08
60240;BME280;46102;39.012;-7.064;2023-08-08T05:47:18;98138.19;;;27.29;39.46
60240;BME280;46102;39.012;-7.064;2023-08-08T05:49:18;98138.13;;;27.32;39.55
60240;BME280;46102;39.012;-7.064;2023-08-08T05:51:19;98139.25;;;27.35;39.13
60240;BME280;46102;39.012;-7.064;2023-08-08T05:53:20;98137.16;;;27.39;39.20
60240;BME280;46102;39.012;-7.064;2023-08-08T05:55:21;98141.88;;;27.42;39.22
60240;BME280;46102;39.012;-7.064;2023-08-08T05:57:21;98139.06;;;27.42;39.22
60240;BME280;46102;39.012;-7.064;2023-08-08T05:59:22;98136.59;;;27.44;39.24
60240;BME280;46102;39.012;-7.064;2023-08-08T06:01:23;98132.56;;;27.45;39.24
60240;BME280;46102;39.012;-7.064;2023-08-08T06:03:24;98131.31;;;27.46;39.16
60240;BME280;46102;39.012;-7.064;2023-08-08T06:05:24;98135.75;;;27.47;39.19
60240;BME280;46102;39.012;-7.064;2023-08-08T06:07:25;98142.59;;;27.46;39.21
60240;BME280;46102;39.012;-7.064;2023-08-08T06:09:26;98141.69;;;27.49;39.34
60240;BME280;46102;39.012;-7.064;2023-08-08T06:11:28;98134.41;;;27.52;39.11
60240;BME280;46102;39.012;-7.064;2023-08-08T06:13:29;98140.72;;;27.56;38.98
60240;BME280;46102;39.012;-7.064;2023-08-08T06:15:30;98140.66;;;27.59;38.98
60240;BME280;46102;39.012;-7.064;2023-08-08T06:17:30;98129.31;;;27.63;39.10
60240;BME280;46102;39.012;-7.064;2023-08-08T06:19:31;98137.28;;;27.65;39.06
60240;BME280;46102;39.012;-7.064;2023-08-08T06:21:32;98141.59;;;27.69;39.09
60240;BME280;46102;39.012;-7.064;2023-08-08T06:23:32;98147.94;;;27.73;39.00
60240;BME280;46102;39.012;-7.064;2023-08-08T06:25:33;98139.03;;;27.75;39.19
60240;BME280;46102;39.012;-7.064;2023-08-08T06:27:34;98143.34;;;27.79;39.00
60240;BME280;46102;39.012;-7.064;2023-08-08T06:29:35;98146.44;;;27.85;39.12
60240;BME280;46102;39.012;-7.064;2023-08-08T06:31:35;98141.84;;;27.91;38.80
60240;BME280;46102;39.012;-7.064;2023-08-08T06:33:36;98143.34;;;27.96;38.92
60240;BME280;46102;39.012;-7.064;2023-08-08T06:35:39;98145.28;;;27.99;38.99
60240;BME280;46102;39.012;-7.064;2023-08-08T06:37:39;98148.34;;;28.05;39.04
60240;BME280;46102;39.012;-7.064;2023-08-08T06:39:40;98143.75;;;28.11;38.86
60240;BME280;46102;39.012;-7.064;2023-08-08T06:41:42;98142.75;;;28.17;38.79
60240;BME280;46102;39.012;-7.064;2023-08-08T06:43:44;98138.94;;;28.24;38.78
60240;BME280;46102;39.012;-7.064;2023-08-08T06:45:44;98138.38;;;28.29;38.62
60240;BME280;46102;39.012;-7.064;2023-08-08T06:47:45;98134.22;;;28.34;38.76
60240;BME280;46102;39.012;-7.064;2023-08-08T06:49:46;98136.94;;;28.37;38.68
60240;BME280;46102;39.012;-7.064;2023-08-08T06:51:47;98136.59;;;28.35;38.95
60240;BME280;46102;39.012;-7.064;2023-08-08T06:53:48;98150.16;;;28.40;38.74
60240;BME280;46102;39.012;-7.064;2023-08-08T06:55:49;98141.69;;;28.40;39.17
60240;BME280;46102;39.012;-7.064;2023-08-08T06:57:49;98140.91;;;28.40;38.99
60240;BME280;46102;39.012;-7.064;2023-08-08T06:59:50;98148.09;;;28.41;39.31
60240;BME280;46102;39.012;-7.064;2023-08-08T07:01:53;98147.66;;;28.42;39.23
60240;BME280;46102;39.012;-7.064;2023-08-08T07:03:54;98159.66;;;28.47;39.19
60240;BME280;46102;39.012;-7.064;2023-08-08T07:05:54;98156.19;;;28.55;39.11
60240;BME280;46102;39.012;-7.064;2023-08-08T07:07:55;98152.38;;;28.62;39.30
60240;BME280;46102;39.012;-7.064;2023-08-08T07:09:56;98152.81;;;28.60;39.11
60240;BME280;46102;39.012;-7.064;2023-08-08T07:11:57;98155.38;;;28.55;39.32
60240;BME280;46102;39.012;-7.064;2023-08-08T07:13:58;98151.63;;;28.45;39.59
60240;BME280;46102;39.012;-7.064;2023-08-08T07:15:59;98161.66;;;28.46;39.98
60240;BME280;46102;39.012;-7.064;2023-08-08T07:17:59;98164.84;;;28.48;39.63
60240;BME280;46102;39.012;-7.064;2023-08-08T07:20:00;98163.75;;;28.58;39.62
60240;BME280;46102;39.012;-7.064;2023-08-08T07:22:01;98167.28;;;28.62;39.66
60240;BME280;46102;39.012;-7.064;2023-08-08T07:24:02;98179.69;;;28.65;39.53
60240;BME280;46102;39.012;-7.064;2023-08-08T07:26:03;98168.06;;;28.63;39.23
60240;BME280;46102;39.012;-7.064;2023-08-08T07:28:04;98180.47;;;28.65;39.27
60240;BME280;46102;39.012;-7.064;2023-08-08T07:30:05;98173.44;;;28.57;39.84
60240;BME280;46102;39.012;-7.064;2023-08-08T07:32:07;98181.72;;;28.64;39.78
60240;BME280;46102;39.012;-7.064;2023-08-08T07:34:08;98186.25;;;28.75;40.00
60240;BME280;46102;39.012;-7.064;2023-08-08T07:36:09;98184.78;;;28.83;39.91
60240;BME280;46102;39.012;-7.064;2023-08-08T07:38:10;98181.84;;;28.86;40.33
60240;BME280;46102;39.012;-7.064;2023-08-08T07:40:15;98176.44;;;28.92;39.87
60240;BME280;46102;39.012;-7.064;2023-08-08T07:42:18;98173.97;;;28.94;39.88
60240;BME280;46102;39.012;-7.064;2023-08-08T07:44:18;98175.31;;;28.90;40.25
60240;BME280;46102;39.012;-7.064;2023-08-08T07:46:19;98180.84;;;28.93;40.72
60240;BME280;46102;39.012;-7.064;2023-08-08T07:48:20;98186.25;;;28.88;40.58
60240;BME280;46102;39.012;-7.064;2023-08-08T07:50:21;98184.78;;;28.83;40.55
60240;BME280;46102;39.012;-7.064;2023-08-08T07:52:21;98171.84;;;28.98;40.28
60240;BME280;46102;39.012;-7.064;2023-08-08T07:54:24;98179.47;;;28.98;40.95
60240;BME280;46102;39.012;-7.064;2023-08-08T07:56:24;98175.88;;;28.97;40.84
60240;BME280;46102;39.012;-7.064;2023-08-08T07:58:25;98180.06;;;28.93;41.18
60240;BME280;46102;39.012;-7.064;2023-08-08T08:00:27;98182.09;;;28.92;41.31
60240;BME280;46102;39.012;-7.064;2023-08-08T08:02:28;98195.28;;;28.82;41.10
60240;BME280;46102;39.012;-7.064;2023-08-08T08:04:30;98195.84;;;28.77;41.63
60240;BME280;46102;39.012;-7.064;2023-08-08T08:06:31;98196.84;;;28.71;41.64
60240;BME280;46102;39.012;-7.064;2023-08-08T08:08:32;98189.53;;;28.86;41.77
60240;BME280;46102;39.012;-7.064;2023-08-08T08:10:33;98194.28;;;29.02;41.37
60240;BME280;46102;39.012;-7.064;2023-08-08T08:12:34;98200.41;;;29.13;41.07
60240;BME280;46102;39.012;-7.064;2023-08-08T08:14:35;98192.75;;;29.14;41.00
60240;BME280;46102;39.012;-7.064;2023-08-08T08:16:36;98194.78;;;29.39;41.17
60240;BME280;46102;39.012;-7.064;2023-08-08T08:18:37;98189.69;;;29.46;40.75
60240;BME280;46102;39.012;-7.064;2023-08-08T08:20:38;98194.53;;;29.59;40.07
60240;BME280;46102;39.012;-7.064;2023-08-08T08:22:39;98203.56;;;29.79;40.06
60240;BME280;46102;39.012;-7.064;2023-08-08T08:24:40;98190.50;;;29.95;39.93
60240;BME280;46102;39.012;-7.064;2023-08-08T08:26:41;98196.28;;;29.91;39.80
60240;BME280;46102;39.012;-7.064;2023-08-08T08:28:42;98192.69;;;29.91;40.12
60240;BME280;46102;39.012;-7.064;2023-08-08T08:30:42;98198.84;;;30.11;39.54
60240;BME280;46102;39.012;-7.064;2023-08-08T08:32:44;98190.25;;;30.37;39.23
60240;BME280;46102;39.012;-7.064;2023-08-08T08:34:45;98207.63;;;30.48;38.48
60240;BME280;46102;39.012;-7.064;2023-08-08T08:36:46;98212.50;;;30.47;38.26
60240;BME280;46102;39.012;-7.064;2023-08-08T08:38:47;98200.13;;;30.54;38.79
60240;BME280;46102;39.012;-7.064;2023-08-08T08:40:48;98204.34;;;30.49;38.19
60240;BME280;46102;39.012;-7.064;2023-08-08T08:42:50;98199.81;;;30.52;38.75
60240;BME280;46102;39.012;-7.064;2023-08-08T08:44:55;98196.91;;;30.65;38.72
60240;BME280;46102;39.012;-7.064;2023-08-08T08:47:01;98194.31;;;30.80;38.24
60240;BME280;46102;39.012;-7.064;2023-08-08T08:49:03;98197.47;;;31.04;37.15
60240;BME280;46102;39.012;-7.064;2023-08-08T08:51:06;98202.34;;;31.03;37.46
60240;BME280;46102;39.012;-7.064;2023-08-08T08:53:07;98204.25;;;31.06;37.29
60240;BME280;46102;39.012;-7.064;2023-08-08T08:55:09;98204.59;;;31.18;37.41
60240;BME280;46102;39.012;-7.064;2023-08-08T08:57:11;98202.09;;;31.20;37.36
60240;BME280;46102;39.012;-7.064;2023-08-08T08:59:12;98207.25;;;31.43;37.00
60240;BME280;46102;39.012;-7.064;2023-08-08T09:01:13;98202.13;;;31.60;36.66
60240;BME280;46102;39.012;-7.064;2023-08-08T09:03:15;98205.09;;;31.66;36.62
60240;BME280;46102;39.012;-7.064;2023-08-08T09:05:18;98203.09;;;31.76;36.48
60240;BME280;46102;39.012;-7.064;2023-08-08T09:07:23;98208.94;;;31.90;36.59
60240;BME280;46102;39.012;-7.064;2023-08-08T09:09:31;98209.63;;;32.04;36.23
60240;BME280;46102;39.012;-7.064;2023-08-08T09:11:32;98208.06;;;32.03;36.42
60240;BME280;46102;39.012;-7.064;2023-08-08T09:13:37;98204.25;;;32.06;36.13
60240;BME280;46102;39.012;-7.064;2023-08-08T09:15:39;98210.25;;;32.26;35.40
60240;BME280;46102;39.012;-7.064;2023-08-08T09:17:41;98194.97;;;32.33;34.82
60240;BME280;46102;39.012;-7.064;2023-08-08T09:19:44;98195.28;;;32.35;34.67
60240;BME280;46102;39.012;-7.064;2023-08-08T09:21:46;98197.19;;;32.38;34.69
60240;BME280;46102;39.012;-7.064;2023-08-08T09:23:47;98203.16;;;32.40;34.40
60240;BME280;46102;39.012;-7.064;2023-08-08T09:25:48;98199.72;;;32.36;34.31
60240;BME280;46102;39.012;-7.064;2023-08-08T09:27:51;98205.84;;;32.44;33.77
60240;BME280;46102;39.012;-7.064;2023-08-08T09:29:53;98202.69;;;32.32;34.24
60240;BME280;46102;39.012;-7.064;2023-08-08T09:31:54;98199.84;;;32.51;34.04
60240;BME280;46102;39.012;-7.064;2023-08-08T09:33:57;98209.75;;;32.74;33.88
60240;BME280;46102;39.012;-7.064;2023-08-08T09:35:58;98215.09;;;33.00;33.45
60240;BME280;46102;39.012;-7.064;2023-08-08T09:37:59;98207.81;;;33.17;33.01
60240;BME280;46102;39.012;-7.064;2023-08-08T09:40:02;98206.13;;;33.34;32.68
60240;BME280;46102;39.012;-7.064;2023-08-08T09:42:04;98201.00;;;33.48;32.57
60240;BME280;46102;39.012;-7.064;2023-08-08T09:44:07;98204.63;;;33.57;32.64
60240;BME280;46102;39.012;-7.064;2023-08-08T09:46:08;98218.50;;;33.65;32.31
60240;BME280;46102;39.012;-7.064;2023-08-08T09:48:09;98218.44;;;33.74;32.27
60240;BME280;46102;39.012;-7.064;2023-08-08T09:50:10;98206.41;;;33.79;31.91
60240;BME280;46102;39.012;-7.064;2023-08-08T09:52:11;98214.38;;;33.90;31.62
60240;BME280;46102;39.012;-7.064;2023-08-08T09:54:12;98224.69;;;33.87;31.72
60240;BME280;46102;39.012;-7.064;2023-08-08T09:56:14;98219.63;;;33.58;32.46
60240;BME280;46102;39.012;-7.064;2023-08-08T09:58:14;98210.53;;;33.78;32.27
60240;BME280;46102;39.012;-7.064;2023-08-08T10:00:16;98225.06;;;33.71;31.87
60240;BME280;46102;39.012;-7.064;2023-08-08T10:02:16;98215.41;;;33.77;31.40
60240;BME280;46102;39.012;-7.064;2023-08-08T10:04:18;98209.31;;;33.94;31.57
60240;BME280;46102;39.012;-7.064;2023-08-08T10:06:19;98221.72;;;34.06;31.30
60240;BME280;46102;39.012;-7.064;2023-08-08T10:08:20;98215.19;;;34.14;31.05
60240;BME280;46102;39.012;-7.064;2023-08-08T10:10:21;98216.22;;;34.26;30.71
60240;BME280;46102;39.012;-7.064;2023-08-08T10:12:23;98222.81;;;34.32;30.64
60240;BME280;46102;39.012;-7.064;2023-08-08T10:14:34;98217.72;;;34.36;30.10
60240;BME280;46102;39.012;-7.064;2023-08-08T10:16:37;98219.31;;;34.52;30.01
60240;BME280;46102;39.012;-7.064;2023-08-08T10:18:38;98220.72;;;34.72;30.02
60240;BME280;46102;39.012;-7.064;2023-08-08T10:20:41;98206.78;;;34.74;29.50
60240;BME280;46102;39.012;-7.064;2023-08-08T10:22:44;98213.16;;;34.98;29.35
60240;BME280;46102;39.012;-7.064;2023-08-08T10:24:46;98216.19;;;35.10;28.94
60240;BME280;46102;39.012;-7.064;2023-08-08T10:26:59;98219.84;;;34.95;28.96
60240;BME280;46102;39.012;-7.064;2023-08-08T10:29:02;98215.63;;;34.91;28.89
60240;BME280;46102;39.012;-7.064;2023-08-08T10:31:03;98220.63;;;34.96;28.28
60240;BME280;46102;39.012;-7.064;2023-08-08T10:33:15;98214.34;;;34.92;28.69
60240;BME280;46102;39.012;-7.064;2023-08-08T10:35:16;98213.16;;;34.98;28.55
60240;BME280;46102;39.012;-7.064;2023-08-08T10:37:17;98216.19;;;35.10;28.47